Time;durP1;ratioP1;P1;durP2;ratioP2;P2;SDS_P1;SDS_P2;PMS_P1;PMS_P2;Temp;Humidity;BMP_temperature;BMP_pressure;BME280_temperature;BME280_humidity;BME280_pressure;Samples;Min_cycle;Max_cycle;Signal;HPM_P1;HPM_P2
2023/01/31 00:00:55;;;;;;;5.03;2.60;;;1.10;99.90;;;;;;5048507;28;20503;-77
2023/01/31 00:03:21;;;;;;;8.90;3.80;;;1.10;99.90;;;;;;5045698;28;20186;-77
2023/01/31 00:05:47;;;;;;;3.70;1.73;;;1.20;99.90;;;;;;5052808;28;20523;-77
2023/01/31 00:08:14;;;;;;;9.37;2.90;;;1.20;99.90;;;;;;5052790;28;20206;-77
2023/01/31 00:10:40;;;;;;;3.60;2.20;;;1.30;99.90;;;;;;5052639;28;20196;-77
2023/01/31 00:13:05;;;;;;;4.47;2.73;;;1.30;99.90;;;;;;5052101;28;20721;-77
2023/01/31 00:15:31;;;;;;;8.33;3.00;;;1.30;99.90;;;;;;5051661;28;20431;-77
2023/01/31 00:17:57;;;;;;;10.80;3.53;;;1.30;99.90;;;;;;5040848;28;20264;-77
2023/01/31 00:20:23;;;;;;;15.53;3.70;;;1.30;99.90;;;;;;5039491;28;20187;-78
2023/01/31 00:22:48;;;;;;;5.13;2.80;;;1.30;99.90;;;;;;5044404;28;20198;-78
2023/01/31 00:25:14;;;;;;;11.63;3.67;;;1.30;99.90;;;;;;5032517;28;20257;-78
2023/01/31 00:27:39;;;;;;;5.50;2.80;;;1.30;99.90;;;;;;5032753;28;20294;-78
2023/01/31 00:30:06;;;;;;;5.43;1.90;;;1.30;99.90;;;;;;5046553;28;20186;-78
2023/01/31 00:32:31;;;;;;;7.70;3.30;;;1.20;99.90;;;;;;5045038;28;20210;-78
2023/01/31 00:34:57;;;;;;;6.40;3.53;;;1.20;99.90;;;;;;5033570;28;20928;-79
2023/01/31 00:37:22;;;;;;;9.37;3.20;;;1.10;99.90;;;;;;5052386;28;20240;-78
2023/01/31 00:39:48;;;;;;;4.47;2.40;;;1.00;99.90;;;;;;5051637;28;20323;-79
2023/01/31 00:42:13;;;;;;;5.53;2.30;;;0.90;99.90;;;;;;5039934;28;20197;-79
2023/01/31 00:44:39;;;;;;;5.67;2.50;;;0.80;99.90;;;;;;5038450;28;20225;-79
2023/01/31 00:47:04;;;;;;;5.57;3.03;;;0.80;99.90;;;;;;5039936;28;20186;-78
2023/01/31 00:49:30;;;;;;;11.13;3.60;;;0.70;99.90;;;;;;5051866;28;20666;-79
2023/01/31 00:51:56;;;;;;;5.30;2.43;;;0.70;99.90;;;;;;5043318;28;20182;-79
2023/01/31 00:54:21;;;;;;;7.10;2.80;;;0.60;99.90;;;;;;5045796;28;20177;-79
2023/01/31 00:56:47;;;;;;;5.00;3.00;;;0.60;99.90;;;;;;5041132;28;20209;-78
2023/01/31 00:59:12;;;;;;;4.90;2.53;;;0.50;99.90;;;;;;5040835;28;20517;-79
2023/01/31 01:01:38;;;;;;;3.27;2.23;;;0.50;99.90;;;;;;5064586;28;20214;-79
2023/01/31 01:04:04;;;;;;;7.40;2.60;;;0.50;99.90;;;;;;5050776;28;20560;-79
2023/01/31 01:06:30;;;;;;;16.33;2.47;;;0.50;99.90;;;;;;5060434;28;20732;-79
2023/01/31 01:08:58;;;;;;;3.50;1.97;;;0.50;99.90;;;;;;5039771;28;20556;-79
2023/01/31 01:11:29;;;;;;;11.73;3.17;;;0.50;99.90;;;;;;5052649;28;20706;-79
2023/01/31 01:13:56;;;;;;;4.30;2.33;;;0.40;99.90;;;;;;5049488;28;20439;-79
2023/01/31 01:16:24;;;;;;;6.03;2.30;;;0.40;99.90;;;;;;5052621;28;20899;-79
2023/01/31 01:18:53;;;;;;;6.47;2.53;;;0.40;99.90;;;;;;5036958;28;20424;-79
2023/01/31 01:21:22;;;;;;;4.57;2.70;;;0.30;99.90;;;;;;5036294;28;20803;-81
2023/01/31 01:23:48;;;;;;;15.43;2.57;;;0.30;99.90;;;;;;5038575;28;20455;-79
2023/01/31 01:26:17;;;;;;;4.77;2.50;;;0.30;99.90;;;;;;5052326;28;20507;-78
2023/01/31 01:28:43;;;;;;;11.30;2.67;;;0.40;99.90;;;;;;5052592;28;20464;-78
2023/01/31 01:31:14;;;;;;;10.30;4.60;;;0.40;99.90;;;;;;5057114;28;20431;-79
2023/01/31 01:33:41;;;;;;;6.37;2.60;;;0.40;99.90;;;;;;5052381;28;20178;-78
2023/01/31 01:36:12;;;;;;;3.67;2.07;;;0.50;99.90;;;;;;5052611;28;20516;-78
2023/01/31 01:38:39;;;;;;;6.60;3.10;;;0.40;99.90;;;;;;5052433;28;20455;-78
2023/01/31 01:41:05;;;;;;;10.30;3.73;;;0.40;99.90;;;;;;5051031;28;20849;-78
2023/01/31 01:44:02;;;;;;;13.30;2.70;;;0.30;99.90;;;;;;5052229;28;20455;-78
2023/01/31 01:46:37;;;;;;;5.13;3.03;;;0.30;99.90;;;;;;5043511;28;20450;-77
2023/01/31 01:49:18;;;;;;;6.87;2.40;;;0.30;99.90;;;;;;5045069;28;20467;-78
2023/01/31 01:51:46;;;;;;;4.10;2.50;;;0.30;99.90;;;;;;5064853;28;20451;-78
2023/01/31 01:54:18;;;;;;;7.50;3.03;;;0.20;99.90;;;;;;5050368;28;20428;-78
2023/01/31 01:56:48;;;;;;;6.93;3.50;;;0.20;99.90;;;;;;5043527;28;20473;-78
2023/01/31 01:59:27;;;;;;;4.40;2.57;;;0.20;99.90;;;;;;5049914;28;20811;-78
2023/01/31 02:01:55;;;;;;;7.83;3.50;;;0.20;99.90;;;;;;5047062;28;20800;-78
2023/01/31 02:04:25;;;;;;;5.20;2.90;;;0.20;99.90;;;;;;5049949;28;20806;-78
2023/01/31 02:06:51;;;;;;;15.33;2.93;;;0.10;99.90;;;;;;5044555;28;20451;-78
2023/01/31 02:09:33;;;;;;;10.13;3.50;;;0.10;99.90;;;;;;5053819;28;20459;-78
2023/01/31 02:11:59;;;;;;;7.73;3.00;;;0.10;99.90;;;;;;5041950;28;20463;-78
2023/01/31 02:14:25;;;;;;;7.10;3.10;;;0.10;99.90;;;;;;5042204;28;20420;-78
2023/01/31 02:16:51;;;;;;;14.03;2.90;;;0.00;99.90;;;;;;5042331;28;20181;-77
2023/01/31 02:19:49;;;;;;;7.33;3.47;;;0.00;99.90;;;;;;5048994;28;20416;-77
2023/01/31 02:22:30;;;;;;;8.03;2.80;;;0.00;99.90;;;;;;5029137;28;20213;-78
2023/01/31 02:25:21;;;;;;;10.60;2.97;;;0.10;99.90;;;;;;5063880;28;20424;-77
2023/01/31 02:28:23;;;;;;;8.03;3.43;;;0.10;99.90;;;;;;5044930;28;20427;-77
2023/01/31 02:30:57;;;;;;;4.93;3.40;;;0.00;99.90;;;;;;5028389;28;20819;-77
2023/01/31 02:33:29;;;;;;;5.73;2.70;;;0.00;99.90;;;;;;5046763;28;20419;-77
2023/01/31 02:36:11;;;;;;;9.03;3.43;;;0.10;99.90;;;;;;5041545;28;20423;-77
2023/01/31 02:39:10;;;;;;;5.07;2.40;;;0.00;99.90;;;;;;5042081;28;20436;-77
2023/01/31 02:41:44;;;;;;;5.83;2.60;;;0.10;99.90;;;;;;5050529;28;20412;-78
2023/01/31 02:47:12;;;;;;;4.30;2.57;;;0.10;99.90;;;;;;5042832;28;20411;-77
2023/01/31 02:49:47;;;;;;;3.90;2.33;;;0.10;99.90;;;;;;5046781;28;20540;-77
2023/01/31 02:52:24;;;;;;;13.93;3.83;;;0.10;99.90;;;;;;5044626;28;20516;-77
2023/01/31 02:58:00;;;;;;;6.47;3.00;;;0.10;99.90;;;;;;5053743;28;20523;-77
2023/01/31 03:00:30;;;;;;;6.07;3.10;;;0.00;99.90;;;;;;5045718;28;20433;-77
2023/01/31 03:02:56;;;;;;;4.80;2.67;;;0.00;99.90;;;;;;5055736;28;20510;-77
2023/01/31 03:05:22;;;;;;;7.10;2.53;;;0.00;99.90;;;;;;5047195;28;20520;-77
2023/01/31 03:07:55;;;;;;;6.40;3.53;;;0.10;99.90;;;;;;5057846;28;20185;-77
2023/01/31 03:10:26;;;;;;;5.20;2.33;;;0.10;99.90;;;;;;5059711;28;20181;-76
2023/01/31 03:13:19;;;;;;;5.10;3.30;;;0.00;99.90;;;;;;5037095;28;20456;-77
2023/01/31 03:18:45;;;;;;;9.73;3.37;;;0.10;99.90;;;;;;5051711;28;20415;-76
2023/01/31 03:21:16;;;;;;;6.10;3.33;;;0.10;99.90;;;;;;5042271;28;20507;-76
2023/01/31 03:23:47;;;;;;;5.77;2.33;;;0.10;99.90;;;;;;5036642;28;20483;-76
2023/01/31 03:26:14;;;;;;;4.80;1.70;;;0.00;99.90;;;;;;5033034;28;20932;-76
2023/01/31 03:28:41;;;;;;;8.20;3.03;;;0.00;99.90;;;;;;5050283;28;20487;-76
2023/01/31 03:31:18;;;;;;;4.10;2.73;;;0.00;99.90;;;;;;5042344;28;20417;-76
2023/01/31 03:33:49;;;;;;;8.60;3.00;;;0.00;99.90;;;;;;5044622;28;20464;-76
2023/01/31 03:36:42;;;;;;;9.33;2.60;;;0.00;99.90;;;;;;5052857;28;20430;-76
2023/01/31 03:39:28;;;;;;;4.07;2.50;;;0.00;99.90;;;;;;5032752;28;20445;-76
2023/01/31 03:42:01;;;;;;;3.30;2.20;;;0.00;99.90;;;;;;5051194;28;20427;-76
2023/01/31 03:44:50;;;;;;;8.17;3.73;;;0.10;99.90;;;;;;5044647;28;21224;-76
2023/01/31 03:47:24;;;;;;;6.43;2.47;;;0.10;99.90;;;;;;5042564;28;20424;-76
2023/01/31 03:49:51;;;;;;;8.93;3.30;;;0.10;99.90;;;;;;5056099;28;20455;-76
2023/01/31 03:52:33;;;;;;;13.10;3.47;;;0.10;99.90;;;;;;5041081;28;20422;-76
2023/01/31 03:55:11;;;;;;;6.33;2.37;;;0.00;99.90;;;;;;5038842;28;20469;-76
2023/01/31 03:57:41;;;;;;;11.07;3.03;;;0.00;99.90;;;;;;5037525;28;20443;-76
2023/01/31 04:00:10;;;;;;;4.00;2.73;;;-0.10;99.90;;;;;;5050821;28;20509;-76
2023/01/31 04:02:37;;;;;;;5.97;2.93;;;-0.10;99.90;;;;;;5038499;28;20900;-76
2023/01/31 04:05:11;;;;;;;7.03;3.00;;;-0.20;99.90;;;;;;5051012;28;20454;-76
2023/01/31 04:07:37;;;;;;;5.40;2.80;;;-0.20;99.90;;;;;;5054781;28;20428;-76
2023/01/31 04:10:14;;;;;;;5.10;2.53;;;-0.20;99.90;;;;;;5041864;28;20425;-76
2023/01/31 04:12:40;;;;;;;6.70;2.60;;;-0.10;99.90;;;;;;5050818;28;20510;-76
2023/01/31 04:15:06;;;;;;;3.00;1.77;;;-0.10;99.90;;;;;;5040557;28;20886;-76
2023/01/31 04:17:32;;;;;;;3.50;1.93;;;-0.20;99.90;;;;;;5045528;28;20417;-76
2023/01/31 04:19:58;;;;;;;7.87;3.63;;;-0.20;99.90;;;;;;5032274;28;20443;-76
2023/01/31 04:22:24;;;;;;;6.53;3.17;;;-0.20;99.90;;;;;;5045468;28;20289;-76
2023/01/31 04:24:49;;;;;;;6.80;2.80;;;-0.10;99.90;;;;;;5038812;28;20194;-76
2023/01/31 04:27:15;;;;;;;6.40;3.40;;;-0.10;99.90;;;;;;5050547;28;20568;-77
2023/01/31 04:29:40;;;;;;;7.77;3.23;;;-0.20;99.90;;;;;;5051759;28;20206;-76
2023/01/31 04:32:06;;;;;;;11.40;3.20;;;-0.20;99.90;;;;;;5051605;28;20188;-76
2023/01/31 04:34:31;;;;;;;9.10;3.00;;;-0.30;99.90;;;;;;5040198;28;20232;-76
2023/01/31 04:36:57;;;;;;;7.57;3.20;;;-0.30;99.90;;;;;;5036681;28;20466;-76
2023/01/31 04:39:23;;;;;;;3.57;2.27;;;-0.30;99.90;;;;;;5040270;28;20190;-76
2023/01/31 04:41:48;;;;;;;7.57;3.63;;;-0.20;99.90;;;;;;5031594;28;20190;-76
2023/01/31 04:44:15;;;;;;;14.93;3.70;;;-0.20;99.90;;;;;;5031824;28;20194;-78
2023/01/31 04:46:41;;;;;;;7.63;3.17;;;-0.20;99.90;;;;;;5049919;28;20192;-77
2023/01/31 04:49:07;;;;;;;9.03;2.40;;;-0.30;99.90;;;;;;5053103;28;20803;-76
2023/01/31 04:51:33;;;;;;;8.47;2.97;;;-0.30;99.90;;;;;;5053657;28;20425;-76
2023/01/31 04:53:59;;;;;;;4.00;2.17;;;-0.40;99.90;;;;;;5031902;28;20707;-76
2023/01/31 04:56:25;;;;;;;8.20;2.27;;;-0.30;99.90;;;;;;5063114;28;20845;-76
2023/01/31 04:58:50;;;;;;;8.07;4.00;;;-0.30;99.90;;;;;;5040597;28;20420;-76
2023/01/31 05:01:16;;;;;;;8.27;3.20;;;-0.30;99.90;;;;;;5049398;28;20225;-76
2023/01/31 05:03:42;;;;;;;8.47;3.70;;;-0.30;99.90;;;;;;5049353;28;20216;-76
2023/01/31 05:06:08;;;;;;;10.80;3.00;;;-0.20;99.90;;;;;;5038732;28;20196;-77
2023/01/31 05:08:33;;;;;;;14.97;3.70;;;-0.10;99.90;;;;;;5046909;28;20689;-76
2023/01/31 05:11:00;;;;;;;5.40;3.07;;;0.00;99.90;;;;;;5037674;28;20432;-76
2023/01/31 05:13:26;;;;;;;5.23;3.60;;;0.00;99.90;;;;;;5048268;28;20178;-76
2023/01/31 05:15:52;;;;;;;8.50;3.67;;;0.00;99.90;;;;;;5047163;28;20766;-76
2023/01/31 05:18:18;;;;;;;5.60;2.93;;;0.00;99.90;;;;;;5039437;28;20452;-76
2023/01/31 05:20:44;;;;;;;3.93;2.43;;;0.10;99.90;;;;;;5041617;28;20464;-77
2023/01/31 05:23:09;;;;;;;12.13;4.37;;;0.20;99.90;;;;;;5050893;28;20683;-76
2023/01/31 05:25:36;;;;;;;12.20;3.77;;;0.20;99.90;;;;;;5046201;28;20186;-76
2023/01/31 05:28:03;;;;;;;7.83;3.57;;;0.10;99.90;;;;;;5042493;28;20213;-76
2023/01/31 05:30:29;;;;;;;10.37;4.07;;;0.10;99.90;;;;;;5032585;28;20567;-76
2023/01/31 05:32:54;;;;;;;7.23;3.23;;;0.10;99.90;;;;;;5043013;28;20936;-76
2023/01/31 05:35:20;;;;;;;10.47;4.13;;;0.10;99.90;;;;;;5045474;28;20278;-76
2023/01/31 05:37:46;;;;;;;9.20;4.03;;;0.00;99.90;;;;;;5031063;28;20194;-76
2023/01/31 05:40:15;;;;;;;7.37;4.30;;;0.00;99.90;;;;;;5031246;28;20333;-76
2023/01/31 05:42:41;;;;;;;6.43;3.20;;;0.00;99.90;;;;;;5055584;28;20510;-76
2023/01/31 05:45:08;;;;;;;4.03;2.87;;;-0.10;99.90;;;;;;5032932;28;20889;-76
2023/01/31 05:47:34;;;;;;;10.33;5.03;;;-0.10;99.90;;;;;;5043825;28;20181;-76
2023/01/31 05:50:00;;;;;;;9.93;4.70;;;-0.10;99.90;;;;;;5053610;28;21113;-76
2023/01/31 05:52:26;;;;;;;23.23;4.07;;;-0.10;99.90;;;;;;5038439;28;20439;-77
2023/01/31 05:54:51;;;;;;;8.30;4.07;;;-0.20;99.90;;;;;;5034096;28;20189;-77
2023/01/31 05:57:17;;;;;;;8.90;3.40;;;-0.20;99.90;;;;;;5031242;28;20178;-77
2023/01/31 05:59:43;;;;;;;8.07;3.37;;;-0.20;99.90;;;;;;5055401;28;20182;-77
2023/01/31 06:02:10;;;;;;;5.17;3.17;;;-0.30;99.90;;;;;;5040349;28;20194;-76
2023/01/31 06:04:36;;;;;;;12.10;3.03;;;-0.30;99.90;;;;;;5031977;28;20182;-77
2023/01/31 06:07:02;;;;;;;8.03;3.43;;;-0.30;99.90;;;;;;5043373;28;20467;-77
2023/01/31 06:09:28;;;;;;;6.47;3.00;;;-0.30;99.90;;;;;;5050871;28;20495;-77
2023/01/31 06:11:53;;;;;;;8.93;3.87;;;-0.40;99.90;;;;;;5049916;28;20893;-76
2023/01/31 06:14:19;;;;;;;10.17;3.20;;;-0.40;99.90;;;;;;5031866;28;20270;-78
2023/01/31 06:16:44;;;;;;;11.73;3.23;;;-0.40;99.90;;;;;;5031433;28;20183;-78
2023/01/31 06:19:10;;;;;;;8.57;3.83;;;-0.40;99.90;;;;;;5031325;28;20192;-76
2023/01/31 06:21:36;;;;;;;13.20;3.60;;;-0.40;99.90;;;;;;5042891;28;20217;-77
2023/01/31 06:24:01;;;;;;;9.47;3.63;;;-0.40;99.90;;;;;;5051126;28;20193;-77
2023/01/31 06:26:27;;;;;;;9.77;4.03;;;-0.40;99.90;;;;;;5051344;28;20271;-78
2023/01/31 06:28:52;;;;;;;4.17;2.70;;;-0.50;99.90;;;;;;5045523;28;20638;-76
2023/01/31 06:31:18;;;;;;;10.83;4.07;;;-0.50;99.90;;;;;;5043103;28;20190;-76
2023/01/31 06:33:44;;;;;;;17.67;3.30;;;-0.50;99.90;;;;;;5044380;28;20281;-76
2023/01/31 06:36:09;;;;;;;6.00;2.97;;;-0.40;99.90;;;;;;5049866;28;20625;-79
2023/01/31 06:38:35;;;;;;;6.90;3.77;;;-0.40;99.90;;;;;;5043803;28;20242;-79
2023/01/31 06:41:00;;;;;;;9.53;4.60;;;-0.40;99.90;;;;;;5046974;28;20566;-79
2023/01/31 06:43:26;;;;;;;11.40;4.17;;;-0.40;99.90;;;;;;5035640;28;20190;-79
2023/01/31 06:45:52;;;;;;;7.90;3.50;;;-0.30;99.90;;;;;;5044881;28;20186;-79
2023/01/31 06:48:18;;;;;;;7.27;3.27;;;-0.40;99.90;;;;;;5036693;28;20210;-79
2023/01/31 06:50:44;;;;;;;11.07;4.27;;;-0.40;99.90;;;;;;5050893;28;20186;-79
2023/01/31 06:53:09;;;;;;;9.53;3.90;;;-0.40;99.90;;;;;;5038934;28;20424;-79
2023/01/31 06:55:35;;;;;;;13.03;5.23;;;-0.30;99.90;;;;;;5042479;28;20643;-80
2023/01/31 06:58:01;;;;;;;8.03;3.37;;;-0.30;99.90;;;;;;5034289;28;20183;-80
2023/01/31 07:00:26;;;;;;;8.10;3.77;;;-0.30;99.90;;;;;;5033569;28;20643;-80
2023/01/31 07:02:52;;;;;;;9.63;4.37;;;-0.30;99.90;;;;;;5046764;28;20192;-80
2023/01/31 07:05:19;;;;;;;9.80;4.70;;;-0.30;99.90;;;;;;5037611;28;20186;-77
2023/01/31 07:07:46;;;;;;;5.73;3.83;;;-0.30;99.90;;;;;;5038493;28;20851;-77
2023/01/31 07:10:12;;;;;;;14.37;4.80;;;-0.20;99.90;;;;;;5053617;28;20846;-77
2023/01/31 07:12:38;;;;;;;8.23;3.87;;;-0.30;99.90;;;;;;5034016;28;20417;-80
2023/01/31 07:15:04;;;;;;;8.37;3.60;;;-0.30;99.90;;;;;;5046426;28;20434;-80
2023/01/31 07:17:30;;;;;;;9.73;4.90;;;-0.30;99.90;;;;;;5033592;28;20494;-78
2023/01/31 07:19:55;;;;;;;10.53;4.77;;;-0.30;99.90;;;;;;5046595;28;20424;-78
2023/01/31 07:22:21;;;;;;;14.70;4.57;;;-0.30;99.90;;;;;;5053050;28;20194;-78
2023/01/31 07:24:49;;;;;;;16.40;4.67;;;-0.30;99.90;;;;;;5041839;28;20191;-80
2023/01/31 07:27:15;;;;;;;7.47;4.10;;;-0.30;99.90;;;;;;5040598;28;20287;-80
2023/01/31 07:29:40;;;;;;;6.70;3.70;;;-0.20;99.90;;;;;;5053706;28;20458;-78
2023/01/31 07:32:06;;;;;;;5.77;3.87;;;-0.20;99.90;;;;;;5040237;28;20181;-81
2023/01/31 07:34:32;;;;;;;8.63;4.33;;;-0.20;99.90;;;;;;5041007;28;20189;-78
2023/01/31 07:37:00;;;;;;;7.43;3.70;;;-0.20;99.90;;;;;;5033139;28;20213;-78
2023/01/31 07:39:25;;;;;;;20.80;5.00;;;-0.20;99.90;;;;;;5033809;28;20690;-78
2023/01/31 07:41:51;;;;;;;11.13;4.40;;;-0.20;99.90;;;;;;5046792;28;20500;-79
2023/01/31 07:44:17;;;;;;;11.03;3.67;;;-0.20;99.90;;;;;;5046871;28;20420;-80
2023/01/31 07:46:43;;;;;;;9.10;3.60;;;-0.20;99.90;;;;;;5040375;28;20228;-80
2023/01/31 07:49:09;;;;;;;7.83;3.57;;;-0.20;99.90;;;;;;5053335;28;20206;-81
2023/01/31 07:51:37;;;;;;;15.90;4.07;;;-0.10;99.90;;;;;;5047420;28;20205;-81
2023/01/31 07:54:06;;;;;;;12.50;3.43;;;-0.10;99.90;;;;;;5039474;28;20479;-81
2023/01/31 07:56:32;;;;;;;10.20;4.07;;;-0.10;99.90;;;;;;5052524;28;20982;-81
2023/01/31 07:58:58;;;;;;;12.73;4.53;;;0.00;99.90;;;;;;5064725;28;20418;-81
2023/01/31 08:04:15;;;;;;;7.17;3.50;;;0.20;99.90;;;;;;5050761;28;20423;-82
2023/01/31 08:06:43;;;;;;;9.90;3.37;;;0.30;99.90;;;;;;5053414;28;20415;-81
2023/01/31 08:09:09;;;;;;;12.63;5.10;;;0.40;99.90;;;;;;5057908;28;20561;-81
2023/01/31 08:11:35;;;;;;;23.23;5.40;;;0.50;99.90;;;;;;5071713;28;20463;-81
2023/01/31 08:14:01;;;;;;;13.93;4.57;;;0.50;99.90;;;;;;5066614;28;20463;-81
2023/01/31 08:16:26;;;;;;;12.80;3.50;;;0.60;99.90;;;;;;5053102;28;20182;-81
2023/01/31 08:18:52;;;;;;;6.93;2.77;;;0.70;99.90;;;;;;5059588;28;20808;-80
2023/01/31 08:21:18;;;;;;;22.80;4.00;;;0.80;99.90;;;;;;5072820;28;20185;-80
2023/01/31 08:23:45;;;;;;;11.67;3.50;;;0.90;99.90;;;;;;5056348;28;20193;-81
2023/01/31 08:26:16;;;;;;;6.60;3.33;;;1.00;99.90;;;;;;5043999;28;20436;-81
2023/01/31 08:28:43;;;;;;;7.97;3.30;;;1.20;99.90;;;;;;5063682;28;20463;-81
2023/01/31 08:31:27;;;;;;;13.67;3.73;;;1.20;99.90;;;;;;5063313;28;20415;-79
2023/01/31 08:33:53;;;;;;;9.60;3.63;;;1.30;99.90;;;;;;5053286;28;20424;-80
2023/01/31 08:36:25;;;;;;;8.20;2.40;;;1.50;99.90;;;;;;5065674;28;20411;-79
2023/01/31 08:38:51;;;;;;;13.83;4.67;;;1.60;99.90;;;;;;5039776;28;20470;-79
2023/01/31 08:41:18;;;;;;;11.07;4.60;;;1.80;99.90;;;;;;5053609;28;20469;-80
2023/01/31 08:43:45;;;;;;;3.33;2.43;;;2.00;99.90;;;;;;5065191;28;20896;-79
2023/01/31 08:46:10;;;;;;;6.17;2.70;;;2.10;99.90;;;;;;5065443;28;20857;-80
2023/01/31 08:48:37;;;;;;;5.27;2.63;;;2.40;99.90;;;;;;5054998;28;20472;-80
2023/01/31 08:51:08;;;;;;;6.50;2.50;;;2.60;99.90;;;;;;5052098;28;20691;-74
2023/01/31 08:53:37;;;;;;;8.50;2.83;;;2.90;99.90;;;;;;5062142;28;20419;-77
2023/01/31 08:56:05;;;;;;;5.27;2.70;;;3.10;99.90;;;;;;5065088;28;20426;-75
2023/01/31 08:58:32;;;;;;;5.87;2.73;;;3.30;99.90;;;;;;5060871;28;20974;-74
2023/01/31 09:01:02;;;;;;;5.63;2.17;;;3.40;99.90;;;;;;5049641;28;20433;-74
2023/01/31 09:03:28;;;;;;;3.83;2.00;;;3.60;99.90;;;;;;5050422;28;21053;-74
2023/01/31 09:05:53;;;;;;;8.03;2.47;;;3.90;99.90;;;;;;5065800;28;20424;-74
2023/01/31 09:08:19;;;;;;;8.00;2.47;;;3.90;99.90;;;;;;5040012;28;20319;-75
2023/01/31 09:10:52;;;;;;;4.60;2.87;;;3.90;99.90;;;;;;5065592;28;20963;-75
2023/01/31 09:13:18;;;;;;;8.67;2.33;;;3.70;99.90;;;;;;5069932;28;20616;-75
2023/01/31 09:15:44;;;;;;;3.50;2.37;;;3.30;99.90;;;;;;5070102;28;20423;-75
2023/01/31 09:18:09;;;;;;;6.60;2.17;;;3.20;99.90;;;;;;5070531;28;20188;-75
2023/01/31 09:20:35;;;;;;;7.90;2.17;;;3.20;99.90;;;;;;5067144;28;20181;-75
2023/01/31 09:23:00;;;;;;;3.30;1.70;;;3.20;99.90;;;;;;5060169;28;20185;-75
2023/01/31 09:25:26;;;;;;;15.13;2.50;;;3.20;99.90;;;;;;5069675;28;20771;-75
2023/01/31 09:27:52;;;;;;;8.20;2.27;;;3.20;99.90;;;;;;5059463;28;20197;-74
2023/01/31 09:30:18;;;;;;;12.53;4.00;;;3.10;99.90;;;;;;5052036;28;20169;-75
2023/01/31 09:32:44;;;;;;;4.03;1.70;;;3.10;99.90;;;;;;5069750;28;20411;-74
2023/01/31 09:35:11;;;;;;;6.37;2.73;;;3.00;99.90;;;;;;5070412;28;20504;-74
2023/01/31 09:37:37;;;;;;;5.23;1.80;;;2.90;99.90;;;;;;5070185;28;20508;-74
2023/01/31 09:40:04;;;;;;;3.80;1.70;;;2.90;99.90;;;;;;5069708;28;20502;-74
2023/01/31 09:42:33;;;;;;;12.07;2.90;;;2.90;99.90;;;;;;5059887;28;20186;-75
2023/01/31 09:45:25;;;;;;;3.67;1.40;;;3.00;99.90;;;;;;5063683;28;20477;-74
2023/01/31 09:47:55;;;;;;;3.00;1.50;;;3.10;99.90;;;;;;5055037;28;20431;-75
2023/01/31 09:50:39;;;;;;;3.47;1.70;;;3.20;99.90;;;;;;5057890;28;20434;-75
2023/01/31 09:53:05;;;;;;;4.17;2.30;;;3.40;99.90;;;;;;5058665;28;20416;-74
2023/01/31 09:56:03;;;;;;;6.63;2.10;;;3.40;99.90;;;;;;5060501;28;20423;-74
2023/01/31 09:58:29;;;;;;;5.93;2.13;;;3.50;99.90;;;;;;5056898;28;20181;-74
2023/01/31 10:01:16;;;;;;;11.60;3.20;;;3.50;99.90;;;;;;5060580;28;20508;-74
2023/01/31 10:03:50;;;;;;;4.07;1.80;;;3.40;99.90;;;;;;5051190;28;20181;-74
2023/01/31 10:06:25;;;;;;;5.03;1.67;;;3.30;99.90;;;;;;5069541;28;20429;-75
2023/01/31 10:09:09;;;;;;;4.57;2.57;;;3.10;99.90;;;;;;5065977;28;20521;-74
2023/01/31 10:11:48;;;;;;;18.03;2.67;;;3.10;99.90;;;;;;5056565;28;20400;-73
2023/01/31 10:14:30;;;;;;;4.10;1.80;;;3.10;99.90;;;;;;5044842;28;20498;-74
2023/01/31 10:17:09;;;;;;;7.80;2.30;;;3.00;99.90;;;;;;5053512;28;20944;-74
2023/01/31 10:19:53;;;;;;;7.30;2.90;;;3.00;99.90;;;;;;5061535;28;20846;-74
2023/01/31 10:22:41;;;;;;;4.00;2.30;;;3.00;99.90;;;;;;5050231;28;20419;-74
2023/01/31 10:25:42;;;;;;;6.43;2.10;;;2.90;99.90;;;;;;5056875;28;20923;-74
2023/01/31 10:28:23;;;;;;;3.00;1.57;;;3.00;99.90;;;;;;5069343;28;20419;-75
2023/01/31 10:31:09;;;;;;;11.67;2.57;;;3.10;99.90;;;;;;5073866;28;20904;-74
2023/01/31 10:33:44;;;;;;;1.83;1.10;;;3.10;99.90;;;;;;5054056;28;20427;-73
2023/01/31 10:36:33;;;;;;;5.33;1.60;;;3.10;99.90;;;;;;5054558;28;20423;-74
2023/01/31 10:39:23;;;;;;;4.10;2.07;;;3.00;99.90;;;;;;5054197;28;21172;-74
2023/01/31 10:42:01;;;;;;;8.73;3.57;;;3.10;99.90;;;;;;5073399;28;20448;-74
2023/01/31 10:44:40;;;;;;;5.60;2.50;;;3.20;99.90;;;;;;5073259;28;20427;-73
2023/01/31 10:47:16;;;;;;;7.37;2.90;;;3.30;99.90;;;;;;5074155;28;20434;-75
2023/01/31 10:49:48;;;;;;;3.63;1.73;;;3.40;99.90;;;;;;5065871;28;20456;-74
2023/01/31 10:52:41;;;;;;;10.43;3.37;;;3.40;99.90;;;;;;5053109;28;20566;-74
2023/01/31 10:55:22;;;;;;;11.03;2.80;;;3.50;99.90;;;;;;5048205;28;20715;-74
2023/01/31 10:57:48;;;;;;;9.57;2.77;;;3.70;99.90;;;;;;5070811;28;20831;-74
2023/01/31 11:00:20;;;;;;;8.00;2.07;;;3.90;99.90;;;;;;5069397;28;20876;-74
2023/01/31 11:02:45;;;;;;;4.73;2.00;;;3.90;99.90;;;;;;5060931;28;20411;-74
2023/01/31 11:05:18;;;;;;;6.70;1.43;;;4.10;99.90;;;;;;5073378;28;20426;-75
2023/01/31 11:07:45;;;;;;;4.50;1.40;;;4.20;99.90;;;;;;5074030;28;20181;-75
2023/01/31 11:10:23;;;;;;;3.87;1.50;;;4.10;99.90;;;;;;5073822;28;20989;-74
2023/01/31 11:13:03;;;;;;;4.83;1.90;;;3.90;99.90;;;;;;5040019;28;20410;-75
2023/01/31 11:15:36;;;;;;;6.97;1.93;;;3.90;99.90;;;;;;5064819;28;20407;-74
2023/01/31 11:18:02;;;;;;;6.40;2.03;;;4.00;99.90;;;;;;5046223;28;20416;-75
2023/01/31 11:20:31;;;;;;;3.70;1.60;;;4.00;99.90;;;;;;5056143;28;20415;-75
2023/01/31 11:22:59;;;;;;;3.77;1.63;;;4.20;99.90;;;;;;5073179;28;20412;-74
2023/01/31 11:25:28;;;;;;;1.87;1.00;;;4.30;99.90;;;;;;5059850;28;20446;-75
2023/01/31 11:27:58;;;;;;;4.40;1.60;;;4.30;99.90;;;;;;5073136;28;20409;-75
2023/01/31 11:30:28;;;;;;;2.43;1.17;;;4.20;99.90;;;;;;5068422;28;20482;-75
2023/01/31 11:32:54;;;;;;;5.50;1.87;;;4.20;99.90;;;;;;5065092;28;20422;-75
2023/01/31 11:35:20;;;;;;;3.03;1.20;;;4.10;99.90;;;;;;5072772;28;20844;-75
2023/01/31 11:37:51;;;;;;;7.40;2.20;;;4.20;99.90;;;;;;5073244;28;20899;-75
2023/01/31 11:40:21;;;;;;;3.37;1.77;;;4.30;99.90;;;;;;5067545;28;20412;-75
2023/01/31 11:42:55;;;;;;;3.13;1.20;;;4.40;99.90;;;;;;5064491;28;20473;-75
2023/01/31 11:45:27;;;;;;;3.10;1.17;;;4.50;99.90;;;;;;5073400;28;20447;-76
2023/01/31 11:47:55;;;;;;;3.47;1.80;;;4.50;99.90;;;;;;5059928;28;20860;-74
2023/01/31 11:50:41;;;;;;;9.03;2.00;;;4.50;99.90;;;;;;5060784;28;20428;-74
2023/01/31 11:53:21;;;;;;;3.20;1.10;;;4.40;99.90;;;;;;5055105;28;20446;-74
2023/01/31 11:55:48;;;;;;;3.80;1.50;;;4.30;99.90;;;;;;5050732;28;20960;-74
2023/01/31 11:58:31;;;;;;;5.57;1.63;;;4.30;99.90;;;;;;5054896;28;20412;-74
2023/01/31 12:01:13;;;;;;;5.30;2.17;;;4.30;99.90;;;;;;5054536;28;20408;-75
2023/01/31 12:03:53;;;;;;;4.33;1.60;;;4.30;99.90;;;;;;5054821;28;20460;-75
2023/01/31 12:06:34;;;;;;;2.80;1.50;;;4.10;99.90;;;;;;5070508;28;20812;-74
2023/01/31 12:09:03;;;;;;;2.73;1.63;;;3.90;99.90;;;;;;5068327;28;20454;-74
2023/01/31 12:11:34;;;;;;;3.07;1.40;;;3.80;99.90;;;;;;5053874;28;20448;-74
2023/01/31 12:14:06;;;;;;;6.97;2.53;;;3.70;99.90;;;;;;5048177;28;20527;-74
2023/01/31 12:16:33;;;;;;;4.43;2.10;;;3.70;99.90;;;;;;5072356;28;20419;-75
2023/01/31 12:19:11;;;;;;;2.50;1.00;;;3.70;99.90;;;;;;5060063;28;20416;-74
2023/01/31 12:22:07;;;;;;;2.40;1.33;;;3.70;99.90;;;;;;5048961;28;20403;-74
2023/01/31 12:24:54;;;;;;;8.33;2.40;;;3.60;99.90;;;;;;5068534;28;20415;-75
2023/01/31 12:27:38;;;;;;;4.10;1.97;;;3.50;99.90;;;;;;5070787;28;20415;-74
2023/01/31 12:30:33;;;;;;;4.77;2.30;;;3.40;99.90;;;;;;5064065;28;20454;-74
2023/01/31 12:33:14;;;;;;;6.00;2.30;;;3.40;99.90;;;;;;5072583;28;20411;-74
2023/01/31 12:35:58;;;;;;;2.90;1.60;;;3.50;99.90;;;;;;5072927;28;20449;-74
2023/01/31 12:38:45;;;;;;;5.13;1.87;;;3.50;99.90;;;;;;5072823;28;20513;-74
2023/01/31 12:41:17;;;;;;;4.53;2.17;;;3.40;99.90;;;;;;5063688;28;20947;-74
2023/01/31 12:44:09;;;;;;;2.40;1.40;;;3.40;99.90;;;;;;5060793;28;20421;-74
2023/01/31 12:47:06;;;;;;;3.77;2.00;;;3.40;99.90;;;;;;5055907;28;20405;-75
2023/01/31 12:49:34;;;;;;;7.60;1.03;;;3.30;99.90;;;;;;5044476;28;20535;-74
2023/01/31 12:52:54;;;;;;;2.80;1.30;;;3.30;99.90;;;;;;5051675;28;20961;-74
2023/01/31 12:55:25;;;;;;;7.13;2.70;;;3.30;99.90;;;;;;5035675;28;20452;-75
2023/01/31 12:58:28;;;;;;;12.80;1.53;;;3.50;99.90;;;;;;5064730;28;20916;-75
2023/01/31 13:01:05;;;;;;;4.27;1.50;;;3.50;99.90;;;;;;5056040;28;20419;-75
2023/01/31 13:03:37;;;;;;;2.13;1.57;;;3.40;99.90;;;;;;5044078;28;20419;-75
2023/01/31 13:06:14;;;;;;;3.30;1.30;;;3.40;99.90;;;;;;5071489;28;20438;-75
2023/01/31 13:08:48;;;;;;;2.47;1.30;;;3.30;99.90;;;;;;5071718;28;20545;-74
2023/01/31 13:11:23;;;;;;;4.93;1.70;;;3.40;99.90;;;;;;5064382;28;20515;-75
2023/01/31 13:13:50;;;;;;;7.10;1.80;;;3.30;99.90;;;;;;5053071;28;21064;-75
2023/01/31 13:16:39;;;;;;;4.43;1.83;;;3.30;99.90;;;;;;5071011;28;20425;-75
2023/01/31 13:19:31;;;;;;;5.27;1.70;;;3.20;99.90;;;;;;5061567;28;20487;-75
2023/01/31 13:22:00;;;;;;;2.30;1.50;;;3.10;99.90;;;;;;5060985;28;20481;-75
2023/01/31 13:24:36;;;;;;;6.43;1.70;;;3.20;99.90;;;;;;5071183;28;20438;-75